Time;durP1;ratioP1;P1;durP2;ratioP2;P2;SDS_P1;SDS_P2;PMS_P1;PMS_P2;Temp;Humidity;BMP_temperature;BMP_pressure;BME280_temperature;BME280_humidity;BME280_pressure;Samples;Min_cycle;Max_cycle;Signal;HPM_P1;HPM_P2
2023/04/14 00:00:56;;;;;;;10.02;2.75;;;5.90;99.90;;;;;;5133777;27;20126;-58
2023/04/14 00:03:22;;;;;;;9.68;2.97;;;6.00;99.90;;;;;;5143573;27;20045;-58
2023/04/14 00:05:47;;;;;;;11.35;2.97;;;6.00;99.90;;;;;;5154712;27;20038;-59
2023/04/14 00:08:13;;;;;;;12.70;3.20;;;5.90;99.90;;;;;;5154549;27;20034;-59
2023/04/14 00:10:39;;;;;;;10.23;2.65;;;6.00;99.90;;;;;;5153837;27;20042;-58
2023/04/14 00:13:05;;;;;;;11.43;2.75;;;6.00;99.90;;;;;;5154497;27;20498;-59
2023/04/14 00:15:30;;;;;;;9.10;2.90;;;6.00;99.90;;;;;;5154361;27;20472;-59
2023/04/14 00:17:56;;;;;;;9.45;2.58;;;5.90;99.90;;;;;;5154049;27;20525;-59
2023/04/14 00:20:22;;;;;;;8.75;2.92;;;6.00;99.90;;;;;;5154344;27;20074;-59
2023/04/14 00:22:47;;;;;;;12.40;3.25;;;5.90;99.90;;;;;;5153974;27;20119;-58
2023/04/14 00:25:13;;;;;;;12.48;2.42;;;5.80;99.90;;;;;;5135893;27;20099;-58
2023/04/14 00:27:39;;;;;;;8.82;2.90;;;5.90;99.90;;;;;;5135803;27;20035;-58
2023/04/14 00:30:05;;;;;;;9.70;2.67;;;5.80;99.90;;;;;;5154234;27;20034;-58
2023/04/14 00:32:31;;;;;;;7.65;3.00;;;5.80;99.90;;;;;;5153846;27;20051;-58
2023/04/14 00:34:58;;;;;;;8.88;3.08;;;5.80;99.90;;;;;;5154069;27;20159;-58
2023/04/14 00:37:24;;;;;;;11.48;2.90;;;5.70;99.90;;;;;;5154051;27;20047;-58
2023/04/14 00:39:50;;;;;;;8.70;2.17;;;5.80;99.90;;;;;;5137022;27;20495;-58
2023/04/14 00:42:16;;;;;;;10.43;2.95;;;5.70;99.90;;;;;;5115425;27;20080;-58
2023/04/14 00:44:41;;;;;;;10.35;2.97;;;5.70;99.90;;;;;;5136034;27;20078;-58
2023/04/14 00:47:08;;;;;;;16.50;3.08;;;5.60;99.90;;;;;;5135429;27;20038;-58
2023/04/14 00:49:35;;;;;;;10.43;2.60;;;5.70;99.90;;;;;;5154016;27;20076;-58
2023/04/14 00:52:02;;;;;;;11.93;2.80;;;5.70;99.90;;;;;;5153784;27;20030;-58
2023/04/14 00:54:30;;;;;;;7.65;2.65;;;5.60;99.90;;;;;;5153837;27;20101;-58
2023/04/14 00:56:56;;;;;;;7.72;2.20;;;5.60;99.90;;;;;;5153690;27;20074;-60
2023/04/14 00:59:22;;;;;;;14.45;3.08;;;5.60;99.90;;;;;;5153584;27;20418;-59
2023/04/14 01:01:48;;;;;;;9.48;2.45;;;5.60;99.90;;;;;;5153515;27;20037;-59
2023/04/14 01:04:15;;;;;;;8.18;2.80;;;5.60;99.90;;;;;;5153447;27;20082;-58
2023/04/14 01:06:40;;;;;;;7.53;2.58;;;5.60;99.90;;;;;;5153613;27;20504;-59
2023/04/14 01:09:08;;;;;;;5.68;2.42;;;5.70;99.90;;;;;;5136470;27;20035;-59
2023/04/14 01:11:52;;;;;;;9.40;3.17;;;5.60;99.90;;;;;;5133069;28;20035;-59
2023/04/14 01:14:40;;;;;;;8.82;2.50;;;5.60;99.90;;;;;;5136710;27;20403;-58
2023/04/14 01:17:18;;;;;;;5.22;2.33;;;5.50;99.90;;;;;;5153347;27;20157;-58
2023/04/14 01:20:05;;;;;;;6.38;2.40;;;5.50;99.90;;;;;;5153527;27;20092;-58
2023/04/14 01:22:35;;;;;;;13.20;2.95;;;5.40;99.90;;;;;;5153214;27;20050;-58
2023/04/14 01:25:34;;;;;;;8.68;2.53;;;5.50;99.90;;;;;;5153599;27;20041;-58
2023/04/14 01:28:36;;;;;;;5.78;2.50;;;5.40;99.90;;;;;;5132870;28;20039;-58
2023/04/14 01:31:17;;;;;;;9.57;3.65;;;5.40;99.90;;;;;;5133059;28;20057;-58
2023/04/14 01:33:47;;;;;;;8.30;2.40;;;5.40;99.90;;;;;;5132289;27;20143;-58
2023/04/14 01:36:21;;;;;;;7.30;2.50;;;5.40;99.90;;;;;;5133005;27;20050;-58
2023/04/14 01:38:49;;;;;;;11.02;2.20;;;5.40;99.90;;;;;;5114489;28;20039;-58
2023/04/14 01:41:18;;;;;;;7.88;2.90;;;5.50;99.90;;;;;;5114147;28;20489;-58
2023/04/14 01:43:46;;;;;;;;;;;5.40;99.90;;;;;;5132881;27;20396;-58
2023/04/14 01:46:15;;;;;;;5.82;2.55;;;5.40;99.90;;;;;;5134212;27;19926;-58
2023/04/14 01:48:42;;;;;;;11.13;3.28;;;5.40;99.90;;;;;;5136843;27;20434;-58
2023/04/14 01:51:08;;;;;;;8.00;2.72;;;5.70;99.90;;;;;;5118133;27;20031;-58
2023/04/14 01:53:38;;;;;;;7.28;2.42;;;5.30;99.90;;;;;;5136452;27;20035;-59
2023/04/14 01:56:06;;;;;;;7.10;2.25;;;5.20;99.90;;;;;;5140079;27;20062;-59
2023/04/14 01:58:33;;;;;;;12.10;2.75;;;5.30;99.90;;;;;;5104548;27;20043;-59
2023/04/14 02:00:59;;;;;;;7.63;2.22;;;5.30;99.90;;;;;;5156998;27;20035;-59
2023/04/14 02:03:25;;;;;;;6.07;2.13;;;5.30;99.90;;;;;;5156716;27;20472;-59
2023/04/14 02:05:53;;;;;;;12.20;2.00;;;5.20;99.90;;;;;;5156931;27;20035;-59
2023/04/14 02:08:21;;;;;;;5.32;2.35;;;5.30;99.90;;;;;;5119151;27;20042;-59
2023/04/14 02:10:51;;;;;;;9.80;2.58;;;5.40;99.90;;;;;;5135924;27;20131;-59
2023/04/14 02:13:18;;;;;;;;;;;5.30;99.90;;;;;;5136567;27;20365;-59
2023/04/14 02:15:44;;;;;;;8.05;2.53;;;5.30;99.90;;;;;;5135848;27;20441;-59
2023/04/14 02:18:11;;;;;;;7.97;3.03;;;5.20;99.90;;;;;;5117064;27;20047;-59
2023/04/14 02:20:42;;;;;;;9.45;2.70;;;5.30;99.90;;;;;;5136118;27;20114;-60
2023/04/14 02:23:08;;;;;;;6.57;1.98;;;5.30;99.90;;;;;;5100245;27;20088;-59
2023/04/14 02:25:35;;;;;;;12.15;2.25;;;5.30;99.90;;;;;;5139164;27;20035;-61
2023/04/14 02:28:14;;;;;;;12.32;2.30;;;5.30;99.90;;;;;;5135632;27;20114;-60
2023/04/14 02:30:43;;;;;;;6.60;2.03;;;5.30;99.90;;;;;;5135832;27;20071;-60
2023/04/14 02:33:16;;;;;;;8.65;2.10;;;5.30;99.90;;;;;;5135542;27;20138;-59
2023/04/14 02:35:54;;;;;;;9.27;2.45;;;5.30;99.90;;;;;;5135411;27;20560;-58
2023/04/14 02:38:45;;;;;;;6.63;1.90;;;5.30;99.90;;;;;;5135626;27;20086;-59
2023/04/14 02:41:24;;;;;;;;;;;5.40;99.90;;;;;;5155628;27;20185;-58
2023/04/14 02:44:02;;;;;;;9.30;2.05;;;5.40;99.90;;;;;;5139633;27;19927;-59
2023/04/14 02:46:33;;;;;;;6.82;2.17;;;5.50;99.90;;;;;;5135500;27;20115;-59
2023/04/14 02:49:02;;;;;;;7.38;2.10;;;5.50;99.90;;;;;;5126879;27;20383;-59
2023/04/14 02:51:30;;;;;;;6.30;2.00;;;5.50;99.90;;;;;;5156138;27;20042;-59
2023/04/14 02:53:56;;;;;;;9.75;2.45;;;5.50;99.90;;;;;;5141037;27;20057;-58
2023/04/14 02:56:23;;;;;;;6.45;2.30;;;5.50;99.90;;;;;;5121641;27;20041;-58
2023/04/14 02:58:49;;;;;;;7.75;2.00;;;5.40;99.90;;;;;;5147302;27;20481;-58
2023/04/14 03:01:17;;;;;;;8.50;2.83;;;5.50;99.90;;;;;;5147639;27;20031;-59
2023/04/14 03:03:43;;;;;;;6.93;2.22;;;5.50;99.90;;;;;;5155967;27;20035;-58
2023/04/14 03:06:10;;;;;;;8.55;2.35;;;5.40;99.90;;;;;;5137099;27;20076;-58
2023/04/14 03:08:36;;;;;;;8.52;1.92;;;5.40;99.90;;;;;;5156068;27;20030;-59
2023/04/14 03:11:03;;;;;;;6.70;2.63;;;5.50;99.90;;;;;;5151727;27;20068;-59
2023/04/14 03:13:32;;;;;;;7.88;2.22;;;5.30;99.90;;;;;;5156109;27;20035;-59
2023/04/14 03:15:58;;;;;;;7.10;2.60;;;5.30;99.90;;;;;;5155753;27;20106;-58
2023/04/14 03:18:26;;;;;;;10.43;2.70;;;5.30;99.90;;;;;;5137480;27;20125;-59
2023/04/14 03:20:54;;;;;;;7.10;2.40;;;5.20;99.90;;;;;;5155407;27;20544;-59
2023/04/14 03:23:23;;;;;;;9.15;2.38;;;5.20;99.90;;;;;;5155581;27;20118;-59
2023/04/14 03:25:50;;;;;;;7.38;2.05;;;5.20;99.90;;;;;;5138693;27;20086;-59
2023/04/14 03:28:21;;;;;;;6.38;2.10;;;5.10;99.90;;;;;;5138438;27;20141;-59
2023/04/14 03:30:50;;;;;;;6.95;2.58;;;5.20;99.90;;;;;;5136583;27;20037;-59
2023/04/14 03:33:21;;;;;;;7.72;2.35;;;5.10;99.90;;;;;;5154938;27;20498;-59
2023/04/14 03:35:48;;;;;;;5.82;2.13;;;5.10;99.90;;;;;;5136356;27;20053;-59
2023/04/14 03:38:15;;;;;;;6.32;2.47;;;5.10;99.90;;;;;;5155140;27;20058;-59
2023/04/14 03:40:43;;;;;;;6.70;2.40;;;5.10;99.90;;;;;;5154843;27;20046;-59
2023/04/14 03:43:11;;;;;;;11.50;3.08;;;5.20;99.90;;;;;;5155141;27;20114;-59
2023/04/14 03:45:42;;;;;;;5.93;2.53;;;5.10;99.90;;;;;;5129926;27;20042;-59
2023/04/14 03:48:11;;;;;;;7.07;2.35;;;5.10;99.90;;;;;;5153710;27;20121;-59
2023/04/14 03:50:41;;;;;;;10.93;2.47;;;5.00;99.90;;;;;;5136452;27;20088;-58
2023/04/14 03:53:11;;;;;;;10.15;2.95;;;5.10;99.90;;;;;;5125642;27;20349;-59
2023/04/14 03:55:39;;;;;;;10.07;2.70;;;5.10;99.90;;;;;;5132501;27;20495;-59
2023/04/14 03:58:06;;;;;;;9.27;2.50;;;5.10;99.90;;;;;;5154823;27;20062;-59
2023/04/14 04:00:32;;;;;;;7.15;2.30;;;5.10;99.90;;;;;;5154369;27;20038;-59
2023/04/14 04:02:58;;;;;;;9.30;2.58;;;5.10;99.90;;;;;;5154569;27;20172;-59
2023/04/14 04:05:24;;;;;;;8.05;2.72;;;5.10;99.90;;;;;;5154597;27;20172;-59
2023/04/14 04:07:51;;;;;;;5.35;2.25;;;5.10;99.90;;;;;;5136289;27;20532;-59
2023/04/14 04:10:19;;;;;;;7.22;2.53;;;5.30;99.90;;;;;;5150176;27;20027;-59
2023/04/14 04:12:47;;;;;;;9.05;2.67;;;5.10;99.90;;;;;;5133956;27;20418;-59
2023/04/14 04:15:13;;;;;;;8.07;2.70;;;5.20;99.90;;;;;;5133691;27;20038;-59
2023/04/14 04:17:40;;;;;;;8.55;2.65;;;5.10;99.90;;;;;;5133895;27;20160;-59
2023/04/14 04:20:11;;;;;;;5.53;2.03;;;5.10;99.90;;;;;;5133582;27;20046;-59
2023/04/14 04:22:40;;;;;;;5.78;2.60;;;5.10;99.90;;;;;;5133526;27;20487;-59
2023/04/14 04:25:08;;;;;;;11.30;2.85;;;5.20;99.90;;;;;;5104020;27;20039;-59
2023/04/14 04:27:34;;;;;;;9.43;2.67;;;5.10;99.90;;;;;;5133565;27;20396;-59
2023/04/14 04:30:00;;;;;;;5.97;2.20;;;5.10;99.90;;;;;;5133244;27;20035;-59
2023/04/14 04:32:27;;;;;;;5.53;2.25;;;5.10;99.90;;;;;;5134103;27;20408;-59
2023/04/14 04:34:53;;;;;;;8.23;2.97;;;5.10;99.90;;;;;;5126570;27;20050;-59
2023/04/14 04:37:20;;;;;;;4.40;2.15;;;5.10;99.90;;;;;;5152495;27;20037;-59
2023/04/14 04:39:49;;;;;;;9.13;2.30;;;5.20;99.90;;;;;;5153943;27;20492;-59
2023/04/14 04:42:15;;;;;;;7.30;2.42;;;5.20;99.90;;;;;;5149817;27;20023;-59
2023/04/14 04:44:41;;;;;;;8.57;2.35;;;5.20;99.90;;;;;;5153793;27;20503;-59
2023/04/14 04:47:08;;;;;;;8.93;2.38;;;5.20;99.90;;;;;;5123818;27;20119;-59
2023/04/14 04:49:34;;;;;;;8.13;2.30;;;5.10;99.90;;;;;;5132989;27;20035;-59
2023/04/14 04:51:59;;;;;;;8.52;2.33;;;5.10;99.90;;;;;;5149042;27;20163;-59
2023/04/14 04:54:26;;;;;;;13.68;2.38;;;5.10;99.90;;;;;;5149928;27;20034;-58
2023/04/14 04:56:51;;;;;;;9.15;2.05;;;5.10;99.90;;;;;;5129237;27;20046;-59
2023/04/14 04:59:17;;;;;;;8.98;2.33;;;5.10;99.90;;;;;;5153841;27;20061;-59
2023/04/14 05:01:42;;;;;;;6.57;2.22;;;5.10;99.90;;;;;;5154114;27;20053;-59
2023/04/14 05:04:08;;;;;;;8.88;2.08;;;5.20;99.90;;;;;;5153535;27;20066;-59
2023/04/14 05:06:36;;;;;;;10.60;2.40;;;5.20;99.90;;;;;;5144075;27;20035;-59
2023/04/14 05:09:03;;;;;;;10.85;2.65;;;5.20;99.90;;;;;;5133021;27;20397;-59
2023/04/14 05:11:28;;;;;;;9.60;1.98;;;5.20;99.90;;;;;;5114637;28;20043;-59
2023/04/14 05:13:55;;;;;;;8.75;2.65;;;5.30;99.90;;;;;;5132893;27;20035;-60
2023/04/14 05:16:20;;;;;;;6.03;2.05;;;5.30;99.90;;;;;;5132756;27;20435;-59
2023/04/14 05:18:46;;;;;;;7.03;2.17;;;5.30;99.90;;;;;;5133063;28;20092;-59
2023/04/14 05:21:12;;;;;;;6.97;2.38;;;5.40;99.90;;;;;;5116078;27;20096;-59
2023/04/14 05:23:41;;;;;;;6.03;2.67;;;5.40;99.90;;;;;;5136909;27;20126;-59
2023/04/14 05:26:07;;;;;;;11.00;2.50;;;5.50;99.90;;;;;;5131203;27;20370;-59
2023/04/14 05:28:33;;;;;;;9.13;3.15;;;5.50;99.90;;;;;;5157816;27;20034;-59
2023/04/14 05:30:59;;;;;;;8.75;2.50;;;5.50;99.90;;;;;;5157368;27;20035;-59
2023/04/14 05:33:25;;;;;;;8.43;2.33;;;5.50;99.90;;;;;;5151450;27;20405;-59
2023/04/14 05:35:50;;;;;;;7.43;2.70;;;5.60;99.90;;;;;;5151877;27;20098;-59
2023/04/14 05:38:18;;;;;;;11.05;2.42;;;5.60;99.90;;;;;;5155357;27;20083;-58
2023/04/14 05:40:44;;;;;;;10.60;2.30;;;5.60;99.90;;;;;;5135001;27;20050;-59
2023/04/14 05:43:09;;;;;;;9.70;2.60;;;5.70;99.90;;;;;;5156159;27;20027;-59
2023/04/14 05:45:35;;;;;;;9.98;2.63;;;5.80;99.90;;;;;;5154199;27;20053;-59
2023/04/14 05:48:01;;;;;;;5.07;2.22;;;5.90;99.90;;;;;;5156108;27;20058;-59
2023/04/14 05:50:27;;;;;;;9.95;2.20;;;5.90;99.90;;;;;;5155167;27;20045;-59
2023/04/14 05:52:52;;;;;;;12.45;3.05;;;6.00;99.90;;;;;;5133670;27;20042;-58
2023/04/14 05:55:18;;;;;;;6.88;2.70;;;6.00;99.90;;;;;;5152399;27;20034;-58
2023/04/14 05:57:47;;;;;;;12.98;3.10;;;6.20;99.90;;;;;;5150421;27;20083;-59
2023/04/14 06:00:13;;;;;;;5.38;2.03;;;6.40;99.90;;;;;;5153500;27;20544;-59
2023/04/14 06:02:39;;;;;;;10.10;3.30;;;6.60;99.90;;;;;;5147295;27;20030;-59
2023/04/14 06:05:06;;;;;;;8.07;2.20;;;6.80;99.90;;;;;;5146739;27;20118;-59
2023/04/14 06:07:32;;;;;;;5.53;1.90;;;7.00;99.90;;;;;;5145437;27;20054;-59
2023/04/14 06:09:58;;;;;;;9.50;2.13;;;7.20;99.90;;;;;;5144866;27;20037;-59
2023/04/14 06:12:24;;;;;;;8.80;2.42;;;7.30;99.90;;;;;;5128341;27;20043;-59
2023/04/14 06:14:50;;;;;;;10.52;2.13;;;7.60;99.90;;;;;;5144410;27;20031;-59
2023/04/14 06:17:15;;;;;;;6.60;2.88;;;7.70;99.90;;;;;;5127576;27;20364;-59
2023/04/14 06:19:41;;;;;;;5.20;1.98;;;7.90;99.90;;;;;;5144803;27;20160;-60
2023/04/14 06:22:07;;;;;;;7.22;1.95;;;8.10;99.90;;;;;;5126160;27;20054;-60
2023/04/14 06:24:33;;;;;;;13.43;2.28;;;8.30;99.90;;;;;;5126465;27;20042;-59
2023/04/14 06:27:02;;;;;;;8.35;2.03;;;8.60;99.90;;;;;;5145126;27;20058;-60
2023/04/14 06:29:29;;;;;;;9.98;2.17;;;8.70;99.90;;;;;;5118873;27;20054;-60
2023/04/14 06:31:55;;;;;;;10.93;2.20;;;9.00;99.90;;;;;;5140111;27;20114;-59
2023/04/14 06:34:20;;;;;;;7.57;2.38;;;9.30;99.90;;;;;;5134460;27;20051;-59
2023/04/14 06:36:46;;;;;;;8.93;2.17;;;9.40;99.90;;;;;;5134228;27;20175;-59
2023/04/14 06:39:12;;;;;;;9.20;2.05;;;9.60;99.90;;;;;;5134229;27;20061;-60
2023/04/14 06:41:38;;;;;;;10.95;2.15;;;9.90;99.90;;;;;;5134277;28;20546;-59
2023/04/14 06:44:03;;;;;;;13.75;2.40;;;10.10;99.90;;;;;;5125798;27;20039;-60
2023/04/14 06:46:29;;;;;;;7.32;2.25;;;10.40;99.90;;;;;;5154413;27;20031;-59
2023/04/14 06:48:55;;;;;;;9.07;2.45;;;10.40;99.90;;;;;;5148337;27;20039;-60
2023/04/14 06:51:20;;;;;;;7.70;2.05;;;10.70;99.90;;;;;;5120305;28;20047;-59
2023/04/14 06:53:46;;;;;;;6.68;1.92;;;11.00;99.90;;;;;;5134089;28;20043;-59
2023/04/14 06:56:12;;;;;;;8.20;1.90;;;11.30;99.90;;;;;;5130567;27;20069;-59
2023/04/14 06:58:38;;;;;;;7.90;2.13;;;11.40;99.90;;;;;;5135714;27;20054;-59
2023/04/14 07:01:04;;;;;;;6.25;1.80;;;11.90;99.90;;;;;;5154959;27;20050;-59
2023/04/14 07:03:30;;;;;;;10.00;1.80;;;12.20;99.90;;;;;;5154675;27;20053;-59
2023/04/14 07:06:15;;;;;;;6.53;1.50;;;12.30;99.90;;;;;;5136347;27;20047;-59
2023/04/14 07:08:42;;;;;;;8.40;2.40;;;12.70;99.90;;;;;;5136156;27;20098;-59
2023/04/14 07:11:09;;;;;;;7.22;1.90;;;12.60;99.90;;;;;;5154188;27;20074;-59
2023/04/14 07:13:36;;;;;;;6.43;1.42;;;12.50;99.90;;;;;;5154520;27;20042;-59
2023/04/14 07:16:02;;;;;;;9.18;1.67;;;12.90;99.90;;;;;;5154666;27;20035;-59
2023/04/14 07:18:29;;;;;;;8.98;2.00;;;13.00;99.90;;;;;;5135665;27;20418;-59
2023/04/14 07:20:54;;;;;;;7.78;2.15;;;13.10;99.90;;;;;;5154410;27;20442;-59
2023/04/14 07:23:21;;;;;;;8.75;1.65;;;13.40;99.90;;;;;;5142399;27;20041;-59
2023/04/14 07:25:51;;;;;;;8.07;2.00;;;13.70;99.90;;;;;;5145055;27;20038;-59
2023/04/14 07:28:18;;;;;;;6.35;2.20;;;13.70;99.90;;;;;;5154036;27;20039;-59
2023/04/14 07:30:44;;;;;;;8.52;2.65;;;13.90;99.90;;;;;;5135748;27;20057;-60
2023/04/14 07:33:10;;;;;;;7.10;1.90;;;13.90;99.90;;;;;;5114940;27;1105152;-59
2023/04/14 07:35:35;;;;;;;6.38;1.52;;;14.10;99.90;;;;;;5145950;27;20039;-60
2023/04/14 07:38:01;;;;;;;6.72;1.77;;;14.20;99.90;;;;;;5154651;27;20066;-59
2023/04/14 07:40:27;;;;;;;8.95;1.92;;;14.70;99.90;;;;;;5146203;27;20102;-60
2023/04/14 07:42:52;;;;;;;7.95;1.73;;;14.50;99.90;;;;;;5130640;27;20050;-60
2023/04/14 07:45:18;;;;;;;7.30;1.85;;;14.70;99.90;;;;;;5115832;27;20121;-60
2023/04/14 07:47:44;;;;;;;8.70;1.92;;;14.60;99.90;;;;;;5145334;27;20040;-59
2023/04/14 07:50:09;;;;;;;9.65;1.80;;;14.70;99.90;;;;;;5154417;27;20031;-60
2023/04/14 07:52:36;;;;;;;11.20;1.90;;;14.60;99.90;;;;;;5153095;27;20038;-60
2023/04/14 07:55:02;;;;;;;8.85;1.88;;;14.50;99.90;;;;;;5151986;27;20062;-60
2023/04/14 07:57:28;;;;;;;11.05;2.65;;;14.60;99.90;;;;;;5132702;27;20034;-59
2023/04/14 07:59:54;;;;;;;9.20;2.30;;;14.60;99.90;;;;;;5154350;27;20045;-60
2023/04/14 08:02:20;;;;;;;6.28;1.70;;;14.90;99.90;;;;;;5154924;27;20041;-60
2023/04/14 08:04:46;;;;;;;12.68;1.67;;;15.20;99.90;;;;;;5155109;27;20038;-59
2023/04/14 08:07:12;;;;;;;8.27;1.58;;;15.50;99.90;;;;;;5154750;27;20780;-60
2023/04/14 08:09:38;;;;;;;8.10;1.50;;;15.50;99.90;;;;;;5136312;27;20103;-60
2023/04/14 08:12:04;;;;;;;6.07;1.50;;;15.50;99.90;;;;;;5135911;27;20077;-59
2023/04/14 08:14:29;;;;;;;7.78;1.65;;;15.60;99.90;;;;;;5154813;27;20400;-60
2023/04/14 08:16:55;;;;;;;8.02;2.28;;;15.50;99.90;;;;;;5120117;27;20103;-59
2023/04/14 08:19:21;;;;;;;9.27;1.88;;;16.10;99.90;;;;;;5114803;27;20473;-59
2023/04/14 08:21:46;;;;;;;7.55;1.40;;;16.40;99.90;;;;;;5133915;27;20039;-60
2023/04/14 08:24:12;;;;;;;6.00;2.40;;;16.70;99.90;;;;;;5122406;27;20050;-60
2023/04/14 08:26:38;;;;;;;14.65;5.38;;;16.60;99.90;;;;;;5150572;27;20541;-60
2023/04/14 08:29:03;;;;;;;7.20;1.35;;;16.90;99.90;;;;;;5148620;27;20034;-60
2023/04/14 08:31:29;;;;;;;8.55;1.48;;;16.80;99.60;;;;;;5152215;27;20091;-60
2023/04/14 08:33:56;;;;;;;11.85;3.45;;;17.00;99.90;;;;;;5149391;27;20111;-60
2023/04/14 08:36:21;;;;;;;6.68;1.65;;;17.00;99.50;;;;;;5144613;27;20039;-60
2023/04/14 08:38:47;;;;;;;9.57;2.33;;;16.90;99.40;;;;;;5143301;27;20045;-60
2023/04/14 08:41:16;;;;;;;7.38;2.45;;;16.60;99.30;;;;;;5142247;27;20046;-60
2023/04/14 08:43:42;;;;;;;8.00;2.20;;;16.90;99.90;;;;;;5141524;27;20066;-60
2023/04/14 08:46:10;;;;;;;8.48;1.85;;;17.30;99.40;;;;;;5143499;27;20035;-60
2023/04/14 08:48:37;;;;;;;19.17;7.47;;;17.30;99.50;;;;;;5142331;27;20019;-60
2023/04/14 08:51:13;;;;;;;9.00;2.10;;;17.60;99.90;;;;;;5141324;27;20359;-60
2023/04/14 08:53:44;;;;;;;20.70;7.47;;;17.70;98.70;;;;;;5142685;27;20477;-60
2023/04/14 08:56:15;;;;;;;8.27;2.05;;;17.70;99.20;;;;;;5141660;27;20114;-60
2023/04/14 08:58:40;;;;;;;8.75;2.63;;;17.90;99.20;;;;;;5141577;27;20034;-60
2023/04/14 09:01:07;;;;;;;9.00;2.47;;;17.80;98.20;;;;;;5143337;27;20507;-61
2023/04/14 09:03:33;;;;;;;5.57;1.63;;;17.70;98.70;;;;;;5141617;27;20058;-61
2023/04/14 09:06:00;;;;;;;7.97;2.22;;;17.60;98.40;;;;;;5143294;27;20027;-60
2023/04/14 09:08:26;;;;;;;16.23;5.18;;;17.70;98.20;;;;;;5143690;27;20027;-61
2023/04/14 09:10:53;;;;;;;7.78;1.67;;;17.40;98.50;;;;;;5141441;27;20023;-60
2023/04/14 09:13:21;;;;;;;8.07;1.80;;;17.50;98.80;;;;;;5141876;27;20039;-61
2023/04/14 09:15:48;;;;;;;9.30;2.20;;;17.60;99.10;;;;;;5143047;27;20110;-60
2023/04/14 09:18:15;;;;;;;18.00;8.93;;;17.90;98.00;;;;;;5124120;27;20480;-61
2023/04/14 09:20:41;;;;;;;13.68;4.53;;;17.90;99.00;;;;;;5142065;27;20035;-61
2023/04/14 09:23:08;;;;;;;7.13;1.88;;;17.80;98.60;;;;;;5140663;27;20473;-63
2023/04/14 09:25:35;;;;;;;12.38;4.72;;;18.00;99.30;;;;;;5142245;27;20031;-61
2023/04/14 09:28:01;;;;;;;8.13;2.28;;;18.20;98.70;;;;;;5142276;27;20030;-61
2023/04/14 09:30:27;;;;;;;10.40;2.17;;;18.20;97.90;;;;;;5139744;27;20556;-62
2023/04/14 09:32:53;;;;;;;10.65;2.17;;;18.50;98.50;;;;;;5132396;28;20051;-60
2023/04/14 09:35:19;;;;;;;7.78;1.70;;;18.30;99.80;;;;;;5132879;28;20061;-60
2023/04/14 09:37:46;;;;;;;9.88;2.63;;;18.20;97.60;;;;;;5132929;28;20035;-60
2023/04/14 09:40:30;;;;;;;8.20;2.05;;;18.10;96.70;;;;;;5132687;28;20469;-60
2023/04/14 09:42:56;;;;;;;9.85;2.38;;;17.80;96.50;;;;;;5114252;28;20072;-60
2023/04/14 09:45:39;;;;;;;7.78;2.03;;;17.70;97.20;;;;;;5147099;27;20093;-60
2023/04/14 09:48:06;;;;;;;10.10;2.05;;;17.90;97.40;;;;;;5153218;27;20034;-60
2023/04/14 09:50:32;;;;;;;10.85;2.45;;;18.10;97.60;;;;;;5148363;27;20477;-61
2023/04/14 09:53:03;;;;;;;12.32;2.28;;;17.80;98.10;;;;;;5141216;27;20038;-61
2023/04/14 09:55:29;;;;;;;10.50;2.17;;;18.30;98.10;;;;;;5145239;27;20041;-60
2023/04/14 09:57:55;;;;;;;8.10;2.38;;;17.70;96.80;;;;;;5139593;27;20039;-61
2023/04/14 10:00:22;;;;;;;6.97;2.17;;;17.90;97.50;;;;;;5109406;27;20038;-60
2023/04/14 10:02:57;;;;;;;9.70;2.47;;;18.10;98.20;;;;;;5143017;27;20469;-61
2023/04/14 10:05:30;;;;;;;9.65;2.15;;;17.90;98.30;;;;;;5124698;27;20038;-60
2023/04/14 10:08:04;;;;;;;6.35;1.90;;;17.80;98.20;;;;;;5126509;27;20094;-61
2023/04/14 10:10:30;;;;;;;9.57;2.55;;;17.70;97.70;;;;;;5148034;27;20508;-61
2023/04/14 10:12:55;;;;;;;7.68;2.03;;;17.80;98.50;;;;;;5128888;27;20031;-61
2023/04/14 10:15:21;;;;;;;12.98;2.20;;;18.00;98.50;;;;;;5150443;27;20438;-61
2023/04/14 10:17:47;;;;;;;10.65;2.33;;;17.80;97.40;;;;;;5128745;27;20114;-60
2023/04/14 10:20:14;;;;;;;11.38;2.17;;;17.70;97.10;;;;;;5148667;27;20039;-60
2023/04/14 10:22:40;;;;;;;7.93;2.35;;;18.00;98.40;;;;;;5149174;27;20031;-60
2023/04/14 10:25:08;;;;;;;9.95;2.33;;;17.90;97.80;;;;;;5145294;27;20038;-60
2023/04/14 10:27:34;;;;;;;7.93;2.40;;;17.80;97.90;;;;;;5118683;27;20043;-61
2023/04/14 10:30:00;;;;;;;7.15;2.13;;;18.10;98.40;;;;;;5151930;27;20031;-61
2023/04/14 10:32:31;;;;;;;10.10;2.25;;;18.20;97.90;;;;;;5106828;27;20486;-60
2023/04/14 10:35:04;;;;;;;8.50;2.15;;;18.20;98.20;;;;;;5155131;27;20480;-61
2023/04/14 10:37:31;;;;;;;8.00;2.25;;;18.00;96.40;;;;;;5156224;27;20043;-60
2023/04/14 10:39:59;;;;;;;5.65;2.42;;;18.50;98.00;;;;;;5136681;27;20392;-60
2023/04/14 10:42:25;;;;;;;8.30;2.42;;;18.40;97.20;;;;;;5153572;27;20111;-60
2023/04/14 10:45:11;;;;;;;7.00;2.33;;;18.60;96.60;;;;;;5155970;27;20361;-60
2023/04/14 10:47:39;;;;;;;4.85;2.33;;;18.80;96.00;;;;;;5137768;27;20041;-61
2023/04/14 10:50:23;;;;;;;9.25;2.85;;;18.80;96.70;;;;;;5137346;27;20037;-60
2023/04/14 10:52:49;;;;;;;5.50;2.10;;;18.60;95.60;;;;;;5137623;27;20043;-60
2023/04/14 10:55:15;;;;;;;13.13;3.60;;;18.40;95.50;;;;;;5154426;27;20087;-61
2023/04/14 10:57:43;;;;;;;10.68;2.60;;;18.30;96.20;;;;;;5147813;27;20034;-60
2023/04/14 11:00:32;;;;;;;10.00;2.20;;;18.40;96.50;;;;;;5155861;27;20042;-60
2023/04/14 11:03:09;;;;;;;9.30;2.57;;;18.50;95.60;;;;;;5099260;27;20043;-60
2023/04/14 11:05:35;;;;;;;5.25;2.13;;;18.60;96.10;;;;;;5135238;27;20144;-60
2023/04/14 11:08:13;;;;;;;11.55;2.30;;;18.80;95.60;;;;;;5143813;27;20035;-60
2023/04/14 11:10:40;;;;;;;6.10;2.17;;;18.60;95.40;;;;;;5141429;27;20070;-60
2023/04/14 11:13:10;;;;;;;9.18;2.20;;;18.50;95.90;;;;;;5138593;27;20047;-61
2023/04/14 11:15:45;;;;;;;8.38;1.98;;;18.40;96.40;;;;;;5143160;27;20050;-62
2023/04/14 11:18:19;;;;;;;6.30;1.90;;;18.60;96.50;;;;;;5138419;27;20099;-61
2023/04/14 11:20:45;;;;;;;7.15;1.90;;;19.10;96.30;;;;;;5130948;27;20042;-61
2023/04/14 11:23:15;;;;;;;5.97;1.73;;;19.20;96.30;;;;;;5132205;27;20407;-62
2023/04/14 11:25:41;;;;;;;5.97;1.90;;;19.20;96.00;;;;;;5146917;27;20038;-60
2023/04/14 11:28:06;;;;;;;8.70;2.40;;;18.60;95.90;;;;;;5128512;27;20435;-61
2023/04/14 11:30:32;;;;;;;6.30;2.08;;;18.70;95.30;;;;;;5135545;27;20035;-60
2023/04/14 11:32:59;;;;;;;6.20;2.38;;;18.70;94.90;;;;;;5113310;28;20075;-61
2023/04/14 11:35:26;;;;;;;8.00;2.08;;;18.50;94.80;;;;;;5114278;28;20121;-61
2023/04/14 11:37:55;;;;;;;7.97;2.13;;;18.20;94.40;;;;;;5114246;28;20077;-60
2023/04/14 11:40:21;;;;;;;;;;;18.10;94.90;;;;;;5114882;28;20469;-61
2023/04/14 11:42:55;;;;;;;7.50;2.25;;;17.80;95.60;;;;;;5114389;28;19923;-61
2023/04/14 11:45:26;;;;;;;8.13;2.00;;;17.40;95.60;;;;;;5112828;28;20046;-59
2023/04/14 11:48:02;;;;;;;6.25;1.63;;;17.30;96.00;;;;;;5113844;28;20047;-60
2023/04/14 11:50:31;;;;;;;8.70;1.90;;;17.20;96.80;;;;;;5114233;28;20036;-61
2023/04/14 11:52:58;;;;;;;5.63;1.80;;;17.20;95.50;;;;;;5114233;28;20068;-60
2023/04/14 11:55:26;;;;;;;5.63;2.03;;;17.40;95.60;;;;;;5115892;27;20027;-60
2023/04/14 11:57:53;;;;;;;7.72;1.85;;;17.30;95.70;;;;;;5132795;27;20126;-61
2023/04/14 12:00:19;;;;;;;7.20;2.03;;;17.50;95.40;;;;;;5134874;27;20039;-60
2023/04/14 12:02:45;;;;;;;5.97;1.60;;;18.10;96.00;;;;;;5096760;28;20120;-60
2023/04/14 12:05:12;;;;;;;11.35;1.88;;;18.40;95.80;;;;;;5113558;28;20031;-60
2023/04/14 12:07:41;;;;;;;8.45;2.10;;;18.50;94.10;;;;;;5111866;28;20052;-60
2023/04/14 12:10:07;;;;;;;8.38;2.22;;;18.40;93.70;;;;;;5111792;28;20587;-61
2023/04/14 12:12:33;;;;;;;7.03;1.60;;;18.30;94.30;;;;;;5113540;28;20051;-61
2023/04/14 12:14:59;;;;;;;11.48;2.92;;;18.10;94.60;;;;;;5113597;28;20039;-60
2023/04/14 12:17:25;;;;;;;5.93;2.30;;;17.90;95.10;;;;;;5113244;28;20096;-61
2023/04/14 12:19:51;;;;;;;6.35;2.67;;;17.50;95.40;;;;;;5113525;28;20506;-60
2023/04/14 12:22:27;;;;;;;12.05;4.63;;;17.40;95.90;;;;;;5113307;28;20035;-61
2023/04/14 12:24:54;;;;;;;10.00;3.63;;;17.00;96.10;;;;;;5112065;28;20043;-60
2023/04/14 12:27:25;;;;;;;7.75;2.60;;;16.90;95.80;;;;;;5112032;28;20043;-61
2023/04/14 12:29:51;;;;;;;7.22;2.03;;;16.70;96.50;;;;;;5114248;27;20085;-61
2023/04/14 12:32:17;;;;;;;6.10;2.30;;;16.60;96.90;;;;;;5131539;27;20039;-61
2023/04/14 12:34:56;;;;;;;9.18;2.75;;;16.60;97.40;;;;;;5132341;27;20568;-61
2023/04/14 12:37:25;;;;;;;37.47;14.52;;;16.60;96.70;;;;;;5133925;27;20073;-61
2023/04/14 12:40:05;;;;;;;5.70;2.25;;;16.80;97.00;;;;;;5134164;27;20050;-61
2023/04/14 12:42:45;;;;;;;8.77;2.60;;;16.60;96.90;;;;;;5133826;27;20068;-60
2023/04/14 12:45:11;;;;;;;;;;;16.50;96.90;;;;;;5134048;27;20042;-61
2023/04/14 12:47:37;;;;;;;6.07;1.95;;;16.30;95.20;;;;;;5133830;27;19919;-61
2023/04/14 12:50:23;;;;;;;11.10;3.90;;;16.20;96.00;;;;;;5133827;27;20168;-60
2023/04/14 12:52:50;;;;;;;5.72;1.50;;;16.40;95.90;;;;;;5133717;27;20050;-60
2023/04/14 12:55:21;;;;;;;9.18;2.10;;;16.50;95.40;;;;;;5133632;27;20172;-60